Time;durP1;ratioP1;P1;durP2;ratioP2;P2;SDS_P1;SDS_P2;PMS_P1;PMS_P2;Temp;Humidity;BMP_temperature;BMP_pressure;BME280_temperature;BME280_humidity;BME280_pressure;Samples;Min_cycle;Max_cycle;Signal;HPM_P1;HPM_P2
2023/09/17 00:02:00;;;;;;;8.32;7.60;;;;;;;19.35;100.00;100839.97;6088159;23;20050;-71
2023/09/17 00:04:27;;;;;;;7.85;7.25;;;;;;;19.11;100.00;100833.13;6083028;23;20346;-71
2023/09/17 00:06:53;;;;;;;8.38;7.57;;;;;;;19.40;100.00;100876.81;6087764;23;20065;-73
2023/09/17 00:09:20;;;;;;;7.35;6.85;;;;;;;19.41;100.00;100884.69;6093153;23;20033;-71
2023/09/17 00:11:46;;;;;;;7.47;6.93;;;;;;;19.18;100.00;100868.03;6074658;23;20085;-70
2023/09/17 00:14:13;;;;;;;7.45;6.85;;;;;;;19.13;100.00;100835.66;6076020;23;20081;-70
2023/09/17 00:16:39;;;;;;;9.23;7.32;;;;;;;19.26;100.00;100876.22;6081199;23;20096;-71
2023/09/17 00:19:06;;;;;;;6.93;6.43;;;;;;;19.07;100.00;100855.66;6075459;23;20060;-70
2023/09/17 00:21:35;;;;;;;7.10;6.60;;;;;;;18.91;100.00;100826.84;6058138;23;20027;-71
2023/09/17 00:24:01;;;;;;;6.38;6.07;;;;;;;19.15;100.00;100867.47;6086336;23;20022;-72
2023/09/17 00:26:27;;;;;;;6.40;6.00;;;;;;;18.92;100.00;100833.00;6087643;23;20084;-72
2023/09/17 00:28:54;;;;;;;6.18;5.75;;;;;;;19.10;100.00;100857.19;6097572;23;20034;-71
2023/09/17 00:31:20;;;;;;;6.53;6.13;;;;;;;19.10;100.00;100859.84;6080160;23;20026;-71
2023/09/17 00:33:47;;;;;;;6.75;6.30;;;;;;;18.68;100.00;100806.66;6057416;23;20036;-70
2023/09/17 00:36:14;;;;;;;6.40;6.00;;;;;;;18.52;100.00;100777.88;6084927;23;20244;-72
2023/09/17 00:38:40;;;;;;;6.88;6.40;;;;;;;19.05;100.00;100860.25;6055932;23;20030;-70
2023/09/17 00:41:07;;;;;;;6.85;6.35;;;;;;;19.05;100.00;100870.91;6085748;23;20455;-70
2023/09/17 00:43:34;;;;;;;7.22;6.65;;;;;;;19.05;100.00;100878.03;6084331;23;20032;-73
2023/09/17 00:46:00;;;;;;;7.20;6.70;;;;;;;18.21;100.00;100739.78;6073538;23;20089;-73
2023/09/17 00:48:27;;;;;;;7.97;7.28;;;;;;;19.03;100.00;100877.34;6057973;23;20014;-74
2023/09/17 00:50:55;;;;;;;7.32;6.70;;;;;;;18.74;100.00;100825.63;6087884;23;20409;-73
2023/09/17 00:53:21;;;;;;;7.18;6.57;;;;;;;18.93;100.00;100871.94;6089635;23;20032;-71
2023/09/17 00:55:48;;;;;;;7.78;7.07;;;;;;;18.87;100.00;100867.16;6083003;23;20085;-72
2023/09/17 00:58:15;;;;;;;7.25;6.70;;;;;;;18.89;100.00;100875.84;6074590;23;20045;-72
2023/09/17 01:00:43;;;;;;;7.50;6.90;;;;;;;18.64;100.00;100835.34;6086739;23;20026;-71
2023/09/17 01:03:12;;;;;;;6.60;6.15;;;;;;;18.81;100.00;100872.97;6063245;23;20010;-71
2023/09/17 01:05:42;;;;;;;6.80;6.30;;;;;;;18.81;100.00;100881.78;6082256;23;20311;-72
2023/09/17 01:08:10;;;;;;;6.90;6.43;;;;;;;18.45;100.00;100825.41;6082219;23;20022;-72
2023/09/17 01:10:40;;;;;;;7.40;6.90;;;;;;;18.73;100.00;100861.13;6088352;23;20345;-72
2023/09/17 01:13:08;;;;;;;8.35;7.70;;;;;;;18.49;100.00;100828.63;6086284;23;20014;-72
2023/09/17 01:15:35;;;;;;;7.55;6.97;;;;;;;18.29;100.00;100793.09;6083809;23;20050;-71
2023/09/17 01:18:02;;;;;;;6.57;6.18;;;;;;;18.59;100.00;100853.47;6080952;23;20574;-72
2023/09/17 01:20:34;;;;;;;7.03;6.50;;;;;;;18.31;100.00;100817.72;6075609;23;20874;-73
2023/09/17 01:23:08;;;;;;;7.28;6.80;;;;;;;18.50;100.00;100848.91;6084883;23;20029;-71
2023/09/17 01:25:57;;;;;;;7.38;6.82;;;;;;;18.50;100.00;100838.28;6066014;23;20041;-71
2023/09/17 01:28:24;;;;;;;7.60;6.90;;;;;;;18.29;100.00;100817.00;6054801;23;20047;-72
2023/09/17 01:30:50;;;;;;;7.57;7.07;;;;;;;18.29;100.00;100804.56;6088115;23;20508;-72
2023/09/17 01:33:17;;;;;;;8.65;7.85;;;;;;;18.53;100.00;100848.69;6086042;23;20021;-71
2023/09/17 01:35:57;;;;;;;8.18;7.47;;;;;;;18.51;100.00;100845.31;6085603;23;20032;-71
2023/09/17 01:38:32;;;;;;;8.30;7.45;;;;;;;18.59;100.00;100860.63;6090393;23;20021;-72
2023/09/17 01:41:03;;;;;;;8.43;7.72;;;;;;;18.59;100.00;100872.09;6086284;23;20364;-71
2023/09/17 01:43:32;;;;;;;8.38;7.68;;;;;;;18.11;100.00;100795.47;6088288;23;20026;-72
2023/09/17 01:46:00;;;;;;;8.90;8.00;;;;;;;18.65;100.00;100881.38;6091857;23;20028;-71
2023/09/17 01:48:27;;;;;;;9.07;8.18;;;;;;;18.64;100.00;100883.19;6090675;23;20014;-71
2023/09/17 01:50:54;;;;;;;11.88;7.50;;;;;;;18.65;100.00;100876.06;6085673;23;20045;-73
2023/09/17 01:53:21;;;;;;;12.77;8.13;;;;;;;18.28;100.00;100836.56;6086741;23;20025;-70
2023/09/17 01:55:52;;;;;;;10.07;7.65;;;;;;;18.31;100.00;100834.50;6084898;23;20115;-73
2023/09/17 01:58:21;;;;;;;9.05;8.18;;;;;;;18.68;100.00;100891.72;6087860;23;20077;-71
2023/09/17 02:00:49;;;;;;;9.10;8.30;;;;;;;18.59;100.00;100858.78;6084239;23;20042;-70
2023/09/17 02:03:15;;;;;;;8.75;7.95;;;;;;;18.25;100.00;100821.72;6083562;23;20303;-72
2023/09/17 02:05:42;;;;;;;8.75;7.95;;;;;;;18.09;100.00;100778.81;6089336;23;20032;-70
2023/09/17 02:08:08;;;;;;;9.98;9.13;;;;;;;18.36;100.00;100814.69;6074305;23;20050;-70
2023/09/17 02:10:35;;;;;;;9.13;8.25;;;;;;;18.33;100.00;100829.91;6088134;23;20461;-71
2023/09/17 02:13:02;;;;;;;12.85;8.82;;;;;;;18.45;100.00;100854.63;6063241;23;20017;-70
2023/09/17 02:15:29;;;;;;;9.40;8.50;;;;;;;18.44;100.00;100846.78;6084770;23;20051;-72
2023/09/17 02:17:55;;;;;;;13.23;8.25;;;;;;;18.58;100.00;100869.53;6085627;23;20022;-74
2023/09/17 02:20:22;;;;;;;9.63;8.73;;;;;;;18.71;100.00;100892.31;6083110;23;20511;-73
2023/09/17 02:22:48;;;;;;;9.85;8.82;;;;;;;18.58;100.00;100867.72;6054581;23;20018;-73
2023/09/17 02:25:15;;;;;;;10.35;9.13;;;;;;;18.59;100.00;100872.09;6078898;23;20095;-70
2023/09/17 02:27:41;;;;;;;9.80;8.82;;;;;;;18.47;100.00;100892.53;6080365;23;20014;-70
2023/09/17 02:30:08;;;;;;;11.20;8.88;;;;;;;18.28;100.00;100837.44;6086697;23;20026;-72
2023/09/17 02:32:37;;;;;;;9.45;8.60;;;;;;;18.04;100.00;100794.28;6085066;23;20346;-73
2023/09/17 02:35:07;;;;;;;9.25;8.35;;;;;;;17.46;100.00;100717.53;6089994;23;20610;-71
2023/09/17 02:37:34;;;;;;;9.43;8.63;;;;;;;18.55;100.00;100881.28;6091104;23;20524;-71
2023/09/17 02:40:02;;;;;;;9.75;8.65;;;;;;;18.53;100.00;100873.44;6095528;23;20033;-71
2023/09/17 02:42:30;;;;;;;10.07;9.07;;;;;;;17.63;100.00;100734.78;6087794;23;20010;-71
2023/09/17 02:44:56;;;;;;;10.55;9.45;;;;;;;18.39;100.00;100863.09;6091058;23;20029;-71
2023/09/17 02:47:22;;;;;;;9.15;8.25;;;;;;;18.44;100.00;100874.22;6089567;23;20516;-71
2023/09/17 02:49:49;;;;;;;10.55;8.75;;;;;;;18.22;100.00;100834.41;6057370;23;20178;-71
2023/09/17 02:52:15;;;;;;;10.77;9.48;;;;;;;18.46;100.00;100876.72;6090490;23;20028;-71
2023/09/17 02:54:42;;;;;;;10.23;9.23;;;;;;;18.58;100.00;100898.78;6064130;23;20042;-71
2023/09/17 02:57:09;;;;;;;8.65;7.85;;;;;;;18.60;100.00;100900.38;6084524;23;20033;-71
2023/09/17 02:59:35;;;;;;;8.73;7.95;;;;;;;18.62;100.00;100901.09;6090336;23;20048;-73
2023/09/17 03:02:03;;;;;;;10.23;8.82;;;;;;;18.63;100.00;100888.63;6087920;23;20499;-70
2023/09/17 03:04:30;;;;;;;10.20;9.30;;;;;;;18.36;100.00;100862.50;6088907;23;20157;-74
2023/09/17 03:06:57;;;;;;;9.52;8.52;;;;;;;18.41;100.00;100881.59;6087985;23;20088;-71
2023/09/17 03:09:24;;;;;;;9.82;8.77;;;;;;;18.36;100.00;100851.88;6093473;23;20148;-71
2023/09/17 03:11:51;;;;;;;10.00;8.50;;;;;;;18.55;100.00;100889.25;6089933;23;20029;-71
2023/09/17 03:14:18;;;;;;;9.65;8.65;;;;;;;18.42;100.00;100856.69;6091391;23;20036;-71
2023/09/17 03:16:44;;;;;;;9.70;8.85;;;;;;;18.54;100.00;100883.09;6061046;23;20112;-71
2023/09/17 03:19:12;;;;;;;10.30;9.30;;;;;;;18.65;100.00;100887.53;6091390;23;20547;-73
2023/09/17 03:21:40;;;;;;;11.80;9.05;;;;;;;18.54;100.00;100871.59;6084762;23;20041;-71
2023/09/17 03:24:08;;;;;;;8.63;7.90;;;;;;;18.18;100.00;100796.66;6073668;23;20050;-71
2023/09/17 03:26:37;;;;;;;11.45;8.98;;;;;;;18.62;100.00;100870.97;6085194;23;20089;-71
2023/09/17 03:29:03;;;;;;;10.57;9.57;;;;;;;17.90;100.00;100758.22;6087487;23;20192;-72
2023/09/17 03:31:30;;;;;;;12.13;9.90;;;;;;;18.60;100.00;100864.94;6084914;23;20101;-71
2023/09/17 03:33:57;;;;;;;10.95;9.88;;;;;;;18.33;100.00;100837.03;6087110;23;20013;-71
2023/09/17 03:36:23;;;;;;;10.15;8.88;;;;;;;18.48;100.00;100857.03;6052290;23;20189;-71
2023/09/17 03:38:50;;;;;;;15.63;10.18;;;;;;;17.99;100.00;100789.34;6053275;23;20038;-72
2023/09/17 03:41:16;;;;;;;15.40;9.68;;;;;;;18.25;100.00;100840.31;6090932;23;20126;-71
2023/09/17 03:43:43;;;;;;;10.52;9.45;;;;;;;18.52;100.00;100876.22;6081812;23;20489;-72
2023/09/17 03:46:09;;;;;;;8.35;7.63;;;;;;;17.62;100.00;100725.09;6065539;23;20475;-71
2023/09/17 03:48:36;;;;;;;13.27;10.00;;;;;;;18.49;100.00;100868.50;6086292;23;20043;-71
2023/09/17 03:51:04;;;;;;;10.20;9.18;;;;;;;18.10;100.00;100810.56;6063834;23;20018;-71
2023/09/17 03:53:31;;;;;;;10.15;9.25;;;;;;;18.49;100.00;100874.66;6089905;23;20361;-72
2023/09/17 03:55:58;;;;;;;12.07;9.10;;;;;;;18.50;100.00;100871.03;6083161;23;20097;-71
2023/09/17 03:58:25;;;;;;;10.77;9.25;;;;;;;18.50;100.00;100859.53;6084503;23;20100;-71
2023/09/17 04:00:51;;;;;;;11.45;8.88;;;;;;;17.58;100.00;100718.38;6091040;23;20057;-72
2023/09/17 04:03:19;;;;;;;10.55;9.63;;;;;;;18.37;100.00;100861.56;6085479;23;20014;-72
2023/09/17 04:05:48;;;;;;;11.57;9.45;;;;;;;18.49;100.00;100868.50;6089672;23;20546;-73
2023/09/17 04:08:15;;;;;;;12.55;9.73;;;;;;;18.49;100.00;100868.50;6089716;23;20092;-73
2023/09/17 04:10:42;;;;;;;10.13;9.10;;;;;;;18.50;100.00;100871.03;6089639;23;20030;-71
2023/09/17 04:13:09;;;;;;;11.77;10.23;;;;;;;18.50;100.00;100867.53;6081198;23;20205;-71
2023/09/17 04:15:36;;;;;;;10.27;9.27;;;;;;;18.14;100.00;100808.47;6092107;23;20427;-72
2023/09/17 04:18:04;;;;;;;13.20;10.70;;;;;;;18.22;100.00;100831.75;6086926;23;20460;-72
2023/09/17 04:20:31;;;;;;;11.90;10.23;;;;;;;18.21;100.00;100822.97;6062345;23;20033;-71
2023/09/17 04:22:57;;;;;;;11.45;9.35;;;;;;;18.33;100.00;100848.50;6088178;23;20452;-72
2023/09/17 04:25:25;;;;;;;16.77;10.20;;;;;;;18.46;100.00;100869.63;6087350;23;20030;-71
2023/09/17 04:27:52;;;;;;;13.20;10.18;;;;;;;18.32;100.00;100852.16;6092862;23;20542;-70
2023/09/17 04:30:19;;;;;;;10.52;9.40;;;;;;;17.16;100.00;100660.72;6087085;23;20025;-72
2023/09/17 04:32:47;;;;;;;13.20;9.55;;;;;;;18.22;100.00;100834.41;6086665;23;20021;-72
2023/09/17 04:35:15;;;;;;;11.57;9.50;;;;;;;18.45;100.00;100864.41;6063794;23;20092;-72
2023/09/17 04:37:43;;;;;;;19.55;8.90;;;;;;;18.43;100.00;100863.69;6095396;23;20046;-71
2023/09/17 04:40:11;;;;;;;11.02;9.93;;;;;;;18.39;100.00;100867.59;6059462;23;20033;-73
2023/09/17 04:42:40;;;;;;;11.55;9.98;;;;;;;17.51;100.00;100723.34;6090500;23;20010;-71
2023/09/17 04:45:08;;;;;;;11.43;9.43;;;;;;;18.38;100.00;100871.19;6092165;23;20201;-71
2023/09/17 04:47:38;;;;;;;14.77;9.48;;;;;;;18.27;100.00;100870.28;6086545;23;20028;-71
2023/09/17 04:50:12;;;;;;;13.05;10.18;;;;;;;18.15;100.00;100860.66;6085596;23;20053;-71
2023/09/17 04:52:39;;;;;;;12.50;9.98;;;;;;;18.20;100.00;100849.63;6093777;23;20637;-71
2023/09/17 04:55:05;;;;;;;14.85;9.68;;;;;;;18.07;100.00;100836.53;6097099;23;20108;-71
2023/09/17 04:57:32;;;;;;;10.30;9.30;;;;;;;17.98;100.00;100830.16;6090608;23;20511;-71
2023/09/17 05:00:06;;;;;;;8.90;8.02;;;;;;;18.22;100.00;100875.13;6067151;23;20444;-71
2023/09/17 05:02:33;;;;;;;9.70;8.73;;;;;;;17.99;100.00;100849.59;6079609;23;20424;-72
2023/09/17 05:04:59;;;;;;;9.85;8.95;;;;;;;18.01;100.00;100858.28;6090197;23;20268;-71
2023/09/17 05:07:26;;;;;;;12.27;8.70;;;;;;;18.10;100.00;100876.97;6066395;23;20013;-72
2023/09/17 05:09:52;;;;;;;9.38;8.48;;;;;;;18.06;100.00;100880.84;6079088;23;20402;-71
2023/09/17 05:12:19;;;;;;;9.98;8.98;;;;;;;18.05;100.00;100880.97;6097720;23;20545;-71
2023/09/17 05:14:45;;;;;;;9.18;8.32;;;;;;;17.85;100.00;100864.81;6087972;23;20089;-71
2023/09/17 05:17:13;;;;;;;9.43;8.52;;;;;;;17.87;100.00;100872.66;6082917;23;20046;-71
2023/09/17 05:19:39;;;;;;;10.10;8.85;;;;;;;17.74;100.00;100867.47;6089367;23;20325;-72
2023/09/17 05:22:06;;;;;;;8.68;7.95;;;;;;;17.53;100.00;100824.88;6093796;23;20081;-71
2023/09/17 05:24:32;;;;;;;9.27;8.38;;;;;;;17.96;100.00;100890.53;6088875;23;20049;-72
2023/09/17 05:26:59;;;;;;;8.55;7.75;;;;;;;17.62;100.00;100828.59;6085376;23;20357;-72
2023/09/17 05:29:25;;;;;;;8.70;7.90;;;;;;;17.87;100.00;100888.59;6095271;23;20259;-72
2023/09/17 05:31:52;;;;;;;8.88;7.97;;;;;;;17.98;100.00;100893.03;6081820;23;20014;-73
2023/09/17 05:34:19;;;;;;;10.38;8.20;;;;;;;17.94;100.00;100890.63;6093581;23;20049;-72
2023/09/17 05:36:46;;;;;;;8.88;8.13;;;;;;;17.98;100.00;100901.88;6090553;23;20165;-72
2023/09/17 05:39:12;;;;;;;7.72;7.05;;;;;;;17.82;100.00;100878.31;6093884;23;20546;-73
2023/09/17 05:41:39;;;;;;;9.80;8.80;;;;;;;17.98;100.00;100903.66;6088912;23;20029;-72
2023/09/17 05:44:06;;;;;;;9.40;8.52;;;;;;;17.86;100.00;100878.94;6082115;23;20029;-73
2023/09/17 05:46:32;;;;;;;9.40;8.50;;;;;;;17.60;100.00;100834.06;6083155;23;20216;-73
2023/09/17 05:48:59;;;;;;;8.68;7.88;;;;;;;17.84;100.00;100868.44;6046145;23;20026;-72
2023/09/17 05:51:25;;;;;;;9.02;8.13;;;;;;;17.71;100.00;100833.19;6089045;23;20030;-72
2023/09/17 05:53:52;;;;;;;10.25;8.68;;;;;;;17.87;100.00;100846.94;6075728;23;20073;-73
2023/09/17 05:56:18;;;;;;;9.88;8.80;;;;;;;18.31;100.00;100911.56;6081731;23;20013;-72
2023/09/17 05:58:45;;;;;;;8.35;7.50;;;;;;;18.38;100.00;100911.91;6080011;23;20046;-72
2023/09/17 06:01:11;;;;;;;9.55;8.55;;;;;;;18.34;100.00;100886.53;6082419;23;20027;-72
2023/09/17 06:03:38;;;;;;;10.27;9.07;;;;;;;18.40;100.00;100894.03;6047473;23;20097;-73
2023/09/17 06:06:04;;;;;;;9.50;8.48;;;;;;;18.19;100.00;100840.00;6033515;23;20477;-73
2023/09/17 06:08:31;;;;;;;9.43;8.55;;;;;;;18.68;100.00;100910.34;6085834;23;20486;-72
2023/09/17 06:10:57;;;;;;;9.02;8.23;;;;;;;18.77;100.00;100901.59;6084120;23;20088;-72
2023/09/17 06:13:25;;;;;;;9.13;8.10;;;;;;;18.79;100.00;100904.16;6085779;23;20030;-72
2023/09/17 06:15:51;;;;;;;13.73;8.65;;;;;;;18.39;100.00;100833.03;6090801;23;20062;-73
2023/09/17 06:18:18;;;;;;;9.35;8.50;;;;;;;18.63;100.00;100849.59;6060653;23;20217;-73
2023/09/17 06:20:45;;;;;;;9.48;8.57;;;;;;;19.01;100.00;100890.75;6088841;23;20041;-73
2023/09/17 06:23:12;;;;;;;9.05;8.32;;;;;;;18.80;100.00;100839.38;6095478;23;20087;-73
2023/09/17 06:25:38;;;;;;;9.45;8.65;;;;;;;18.79;100.00;100841.19;6065976;23;20568;-73
2023/09/17 06:28:05;;;;;;;9.90;8.93;;;;;;;19.18;100.00;100875.16;6091832;23;20026;-72
2023/09/17 06:30:32;;;;;;;10.20;9.18;;;;;;;19.08;100.00;100852.03;6085276;23;20022;-72
2023/09/17 06:32:59;;;;;;;9.52;8.52;;;;;;;19.38;100.00;100854.81;6059346;23;20021;-72
2023/09/17 06:35:25;;;;;;;9.80;8.90;;;;;;;19.49;100.00;100844.09;6084949;23;20459;-72
2023/09/17 06:37:52;;;;;;;9.43;8.48;;;;;;;19.77;100.00;100869.16;6086074;23;20333;-72
2023/09/17 06:40:18;;;;;;;9.35;8.45;;;;;;;19.58;100.00;100821.97;6088268;23;20014;-72
2023/09/17 06:42:45;;;;;;;8.85;7.95;;;;;;;19.94;100.00;100862.31;6089524;23;20025;-73
2023/09/17 06:45:11;;;;;;;9.43;8.52;;;;;;;19.94;100.00;100846.34;6082805;23;20026;-72
2023/09/17 06:47:38;;;;;;;9.43;8.63;;;;;;;19.32;100.00;100745.28;6088502;23;20022;-72
2023/09/17 06:50:06;;;;;;;10.75;8.63;;;;;;;19.99;100.00;100835.28;6086433;23;20038;-73
2023/09/17 06:52:34;;;;;;;9.77;8.75;;;;;;;19.87;100.00;100791.94;6085489;23;20173;-73
2023/09/17 06:55:01;;;;;;;9.40;8.50;;;;;;;20.25;100.00;100817.78;6088449;23;20030;-73
2023/09/17 06:57:27;;;;;;;8.98;8.10;;;;;;;20.33;100.00;100817.91;6058128;23;20089;-72
2023/09/17 06:59:54;;;;;;;9.65;8.85;;;;;;;20.02;100.00;100758.56;6088793;23;20452;-72
2023/09/17 07:02:20;;;;;;;8.23;7.63;;;;;;;20.53;100.00;100808.06;6083032;23;20053;-72
2023/09/17 07:04:47;;;;;;;8.95;8.10;;;;;;;20.20;100.00;100765.88;6088651;23;20133;-72
2023/09/17 07:07:14;;;;;;;9.27;8.43;;;;;;;20.31;100.00;100744.41;6078563;23;20026;-73
2023/09/17 07:09:41;;;;;;;8.57;7.80;;;;;;;20.41;100.00;100739.06;6081921;23;20081;-72
2023/09/17 07:12:07;;;;;;;12.68;8.57;;;;;;;20.72;100.00;100772.56;6080645;23;20025;-72
2023/09/17 07:14:34;;;;;;;8.70;8.00;;;;;;;20.62;100.00;100739.75;6087974;23;20462;-72
2023/09/17 07:17:01;;;;;;;8.82;8.13;;;;;;;20.56;100.00;100712.78;6084433;23;20130;-73
2023/09/17 07:19:27;;;;;;;8.40;7.60;;;;;;;20.74;100.00;100716.41;6082812;23;20029;-72
2023/09/17 07:21:54;;;;;;;8.60;7.82;;;;;;;20.88;100.00;100733.78;6083092;23;20030;-73
2023/09/17 07:24:20;;;;;;;9.05;8.25;;;;;;;20.12;100.00;100580.06;6088373;23;20023;-71
2023/09/17 07:26:47;;;;;;;9.55;8.32;;;;;;;20.88;100.00;100680.41;6085621;23;20463;-72
2023/09/17 07:29:13;;;;;;;8.98;8.18;;;;;;;21.22;100.00;100730.53;6085303;23;20151;-73
2023/09/17 07:31:41;;;;;;;9.57;8.63;;;;;;;20.92;100.00;100645.28;6086168;23;20072;-74
2023/09/17 07:34:07;;;;;;;8.90;8.10;;;;;;;21.22;100.00;100669.16;6085981;23;20087;-73
2023/09/17 07:36:34;;;;;;;8.57;7.78;;;;;;;20.95;100.00;100597.94;6083935;23;20006;-74
2023/09/17 07:39:00;;;;;;;8.93;8.18;;;;;;;21.00;100.00;100587.69;6057701;23;20022;-73
2023/09/17 07:41:28;;;;;;;8.30;7.50;;;;;;;21.75;100.00;100678.19;6058072;23;20034;-72
2023/09/17 07:43:55;;;;;;;7.72;7.18;;;;;;;21.78;100.00;100665.38;6078866;23;20022;-73
2023/09/17 07:46:21;;;;;;;7.97;7.32;;;;;;;21.87;100.00;100663.59;6086303;23;20075;-73
2023/09/17 07:48:49;;;;;;;7.45;6.85;;;;;;;21.99;100.00;100641.00;6084701;23;20030;-74
2023/09/17 07:51:16;;;;;;;7.18;6.70;;;;;;;21.70;100.00;100574.50;6079549;23;20500;-73
2023/09/17 07:53:42;;;;;;;8.95;7.97;;;;;;;21.90;100.00;100594.66;6080740;23;20095;-73
2023/09/17 07:56:10;;;;;;;8.02;7.43;;;;;;;22.01;100.00;100600.75;6084985;23;20026;-73
2023/09/17 07:58:36;;;;;;;9.57;6.88;;;;;;;22.09;100.00;100596.31;6076883;23;20046;-72
2023/09/17 08:01:06;;;;;;;8.05;7.32;;;;;;;22.18;100.00;100591.00;6087890;23;20294;-72
2023/09/17 08:03:32;;;;;;;7.60;6.93;;;;;;;22.11;100.00;100574.78;6058521;23;20400;-73
2023/09/17 08:05:59;;;;;;;9.93;7.40;;;;;;;22.18;100.00;100559.78;6087661;23;20056;-73
2023/09/17 08:08:26;;;;;;;7.18;6.68;;;;;;;22.36;100.00;100578.44;6074246;23;20410;-73
2023/09/17 08:10:53;;;;;;;7.40;6.90;;;;;;;22.48;100.00;100589.69;6057496;23;20085;-73
2023/09/17 08:13:20;;;;;;;7.63;7.03;;;;;;;22.45;100.00;100564.13;6079064;23;20053;-74
2023/09/17 08:15:49;;;;;;;7.20;6.70;;;;;;;22.47;100.00;100555.91;6081747;23;20037;-74
2023/09/17 08:18:15;;;;;;;7.47;6.97;;;;;;;22.63;100.00;100539.94;6079105;23;20625;-72
2023/09/17 08:20:42;;;;;;;8.68;7.28;;;;;;;22.54;100.00;100524.88;6087333;23;20033;-72
2023/09/17 08:23:08;;;;;;;7.78;7.28;;;;;;;22.29;100.00;100483.81;6077198;23;20026;-72
2023/09/17 08:25:34;;;;;;;7.20;6.55;;;;;;;22.52;100.00;100513.50;6084053;23;20029;-72
2023/09/17 08:28:02;;;;;;;7.50;7.00;;;;;;;22.44;100.00;100502.78;6084836;23;20033;-72
2023/09/17 08:30:33;;;;;;;7.05;6.60;;;;;;;22.80;100.00;100530.13;6089781;23;20483;-72
2023/09/17 08:33:00;;;;;;;7.85;7.35;;;;;;;22.16;100.00;100413.94;6083920;23;20262;-73
2023/09/17 08:35:27;;;;;;;7.15;6.65;;;;;;;22.67;100.00;100494.97;6075614;23;20046;-73
2023/09/17 08:37:55;;;;;;;7.05;6.55;;;;;;;22.71;100.00;100453.50;6081668;23;20341;-72
2023/09/17 08:40:24;;;;;;;7.20;6.30;;;;;;;22.49;100.00;100438.91;6076052;23;20165;-72
2023/09/17 08:42:50;;;;;;;6.88;6.28;;;;;;;22.44;100.00;100423.38;6085077;23;20041;-73
2023/09/17 08:45:18;;;;;;;7.13;6.72;;;;;;;22.46;100.00;100399.16;6057243;23;20085;-74
2023/09/17 08:47:45;;;;;;;7.07;6.57;;;;;;;22.87;100.00;100452.69;6087704;23;20052;-72
2023/09/17 08:50:12;;;;;;;7.07;6.40;;;;;;;22.84;100.00;100408.38;6080715;23;20487;-72
2023/09/17 08:52:42;;;;;;;6.90;6.28;;;;;;;23.15;100.00;100430.97;6006477;23;20018;-73
2023/09/17 08:55:10;;;;;;;7.40;6.85;;;;;;;23.05;100.00;100418.63;6087188;23;20030;-73
2023/09/17 08:57:38;;;;;;;8.63;6.45;;;;;;;23.23;100.00;100393.47;6087566;23;20348;-72
2023/09/17 09:00:14;;;;;;;7.60;7.10;;;;;;;23.32;98.00;100371.06;6079665;23;20755;-73
2023/09/17 09:02:48;;;;;;;6.65;6.25;;;;;;;23.28;97.85;100362.50;6082142;23;20023;-72
2023/09/17 09:05:17;;;;;;;7.00;6.57;;;;;;;23.54;97.61;100409.66;6060160;23;20041;-72
2023/09/17 09:07:47;;;;;;;7.03;6.57;;;;;;;23.40;97.28;100394.31;6081594;23;20041;-72
2023/09/17 09:10:15;;;;;;;7.10;6.60;;;;;;;23.37;95.70;100355.28;6078893;23;20053;-73
2023/09/17 09:12:42;;;;;;;7.40;6.80;;;;;;;23.64;95.94;100404.09;6077071;23;20081;-72
2023/09/17 09:15:10;;;;;;;7.57;6.95;;;;;;;23.78;94.52;100386.50;6080842;23;20022;-72
2023/09/17 09:17:38;;;;;;;6.78;6.28;;;;;;;23.86;91.22;100360.50;6071402;23;20056;-72
2023/09/17 09:20:19;;;;;;;6.95;6.55;;;;;;;23.70;89.73;100310.47;6083941;23;20081;-72
2023/09/17 09:22:45;;;;;;;6.47;6.07;;;;;;;23.97;89.07;100342.34;6079536;23;20036;-72
2023/09/17 09:25:16;;;;;;;6.35;5.97;;;;;;;24.01;88.14;100336.44;6060938;23;20392;-74
2023/09/17 09:27:43;;;;;;;6.60;6.20;;;;;;;24.07;87.90;100351.84;6083619;23;20081;-73
2023/09/17 09:30:14;;;;;;;6.85;6.45;;;;;;;24.08;86.57;100329.38;6058996;23;20602;-74
2023/09/17 09:32:44;;;;;;;7.20;6.70;;;;;;;24.18;87.56;100341.72;6085587;23;20325;-73
2023/09/17 09:35:11;;;;;;;7.28;6.78;;;;;;;24.13;88.68;100346.78;6085622;23;20617;-73
2023/09/17 09:37:38;;;;;;;6.70;6.30;;;;;;;24.11;85.24;100287.13;6081400;23;20053;-72
2023/09/17 09:40:06;;;;;;;7.15;6.65;;;;;;;24.41;85.40;100314.91;6066044;23;20409;-73
2023/09/17 09:42:32;;;;;;;7.90;7.10;;;;;;;24.82;85.00;100361.03;6055644;23;20042;-73
2023/09/17 09:44:59;;;;;;;7.13;6.63;;;;;;;24.95;83.79;100352.34;6075264;23;20010;-72
2023/09/17 09:47:25;;;;;;;6.95;6.45;;;;;;;24.34;81.82;100228.16;6058741;23;20026;-73
2023/09/17 09:49:52;;;;;;;7.20;6.75;;;;;;;24.54;81.78;100276.78;6088726;23;20037;-74
2023/09/17 09:52:21;;;;;;;6.80;6.30;;;;;;;24.83;82.23;100316.25;6076733;23;20227;-74
2023/09/17 09:54:48;;;;;;;6.95;6.45;;;;;;;25.13;80.21;100324.34;6044714;23;20050;-74
2023/09/17 09:57:15;;;;;;;6.95;6.47;;;;;;;25.24;79.13;100310.50;6081833;23;20487;-73
2023/09/17 09:59:44;;;;;;;7.40;6.80;;;;;;;25.01;80.14;100332.00;6076631;23;20244;-74
2023/09/17 10:02:13;;;;;;;7.18;6.70;;;;;;;25.15;79.44;100324.97;6087574;23;20026;-73
2023/09/17 10:04:39;;;;;;;7.00;6.50;;;;;;;25.17;80.55;100322.94;6052191;23;20025;-72
2023/09/17 10:07:10;;;;;;;7.15;6.75;;;;;;;25.40;79.25;100323.72;6084051;23;20028;-72
2023/09/17 10:09:36;;;;;;;7.13;6.70;;;;;;;25.42;77.35;100278.69;6080708;23;20496;-73
2023/09/17 10:12:04;;;;;;;7.57;6.97;;;;;;;25.28;76.70;100239.25;6080338;23;20025;-73
2023/09/17 10:14:36;;;;;;;7.32;6.80;;;;;;;25.34;76.63;100241.19;6076511;23;20337;-73
2023/09/17 10:17:05;;;;;;;6.88;6.47;;;;;;;25.75;75.87;100283.63;6062375;23;20009;-73
2023/09/17 10:19:34;;;;;;;6.68;6.28;;;;;;;25.86;75.37;100285.81;6082593;23;20216;-74
2023/09/17 10:22:07;;;;;;;7.03;6.60;;;;;;;25.91;73.61;100236.06;6082139;23;20091;-73
2023/09/17 10:24:36;;;;;;;7.05;6.60;;;;;;;25.79;73.07;100219.56;6082159;23;20045;-73
2023/09/17 10:27:05;;;;;;;7.22;6.63;;;;;;;25.66;75.24;100268.66;6082620;23;20006;-72
2023/09/17 10:29:34;;;;;;;6.80;6.40;;;;;;;25.60;74.12;100219.19;6082363;23;20381;-72
2023/09/17 10:32:02;;;;;;;6.90;6.50;;;;;;;25.68;74.11;100248.63;6079872;23;20211;-72
2023/09/17 10:34:32;;;;;;;6.93;6.53;;;;;;;25.83;74.91;100298.81;6057914;23;20037;-73
2023/09/17 10:37:02;;;;;;;7.25;6.75;;;;;;;25.63;74.26;100231.41;6084218;23;20035;-72
2023/09/17 10:39:29;;;;;;;7.47;6.88;;;;;;;25.79;71.53;100173.88;6059434;23;20105;-71
2023/09/17 10:42:00;;;;;;;7.20;6.70;;;;;;;26.19;71.49;100228.88;6084045;23;20014;-72
2023/09/17 10:44:29;;;;;;;7.13;6.63;;;;;;;26.20;71.11;100224.31;6082053;23;20022;-72
2023/09/17 10:46:59;;;;;;;7.07;6.57;;;;;;;26.13;71.91;100236.88;6079440;23;20274;-74
2023/09/17 10:49:27;;;;;;;7.00;6.60;;;;;;;26.52;71.69;100260.59;6087885;23;20570;-72
2023/09/17 10:51:54;;;;;;;7.18;6.68;;;;;;;26.18;69.20;100122.31;6086138;23;20017;-74
2023/09/17 10:54:21;;;;;;;6.95;6.55;;;;;;;26.20;70.37;100159.75;6079537;23;20024;-73
2023/09/17 10:56:47;;;;;;;7.20;6.70;;;;;;;26.95;69.23;100235.44;6074017;23;20043;-74
2023/09/17 10:59:17;;;;;;;7.03;6.63;;;;;;;27.24;69.04;100255.91;6080716;23;20018;-73
2023/09/17 11:01:46;;;;;;;6.65;6.25;;;;;;;26.90;67.19;100166.00;6083006;23;20413;-73
2023/09/17 11:04:18;;;;;;;7.47;6.80;;;;;;;26.77;67.44;100169.47;6066454;23;20193;-73
2023/09/17 11:06:49;;;;;;;6.60;6.20;;;;;;;27.27;65.98;100166.63;6058362;23;20372;-73
2023/09/17 11:09:15;;;;;;;7.07;6.68;;;;;;;27.50;67.04;100235.50;6065236;23;20029;-73
2023/09/17 11:11:43;;;;;;;7.55;6.95;;;;;;;27.16;66.01;100186.00;6061959;23;20029;-73
2023/09/17 11:14:10;;;;;;;7.50;7.10;;;;;;;27.04;66.30;100208.16;6078798;23;20030;-75
2023/09/17 11:16:38;;;;;;;7.30;6.80;;;;;;;26.98;66.98;100232.34;6081667;23;20472;-73
2023/09/17 11:19:12;;;;;;;6.88;6.47;;;;;;;27.07;66.99;100241.94;6083446;23;20026;-72